ADDS METAR Data

Data at: 1830 UTC 20 Jul 2018

METAR for:CYSJ (Saint John Arpt, NB, CN)
Text:CYSJ 201800Z 19010KT 15SM FEW300 27/12 A3019 RMK CI1 SLP225 DENSITY ALT 1500FT
Temperature: 27.0°C ( 81°F)
Dewpoint: 12.0°C ( 54°F) [RH = 39%]
Pressure (altimeter):30.19 inches Hg (1022.4 mb) [Sea level pressure: 1022.5 mb]
Winds:from the S (190 degrees) at 12 MPH (10 knots; 5.1 m/s)
Visibility: 15 sm ( 24 km)
Ceiling:at least 12,000 feet AGL
Clouds: few clouds at 30000 feet AGL